sensor_id;sensor_type;location;lat;lon;timestamp;P1;durP1;ratioP1;P2;durP2;ratioP2
30147;SDS011;16960;49.404;8.248;2022-08-23T00:01:04;8.60;;;5.27;;
30147;SDS011;16960;49.404;8.248;2022-08-23T00:03:31;6.00;;;5.33;;
30147;SDS011;16960;49.404;8.248;2022-08-23T00:05:59;8.60;;;5.70;;
30147;SDS011;16960;49.404;8.248;2022-08-23T00:08:26;7.43;;;5.20;;
30147;SDS011;16960;49.404;8.248;2022-08-23T00:10:53;5.70;;;5.20;;
30147;SDS011;16960;49.404;8.248;2022-08-23T00:13:22;8.90;;;5.03;;
30147;SDS011;16960;49.404;8.248;2022-08-23T00:15:49;10.13;;;5.53;;
30147;SDS011;16960;49.404;8.248;2022-08-23T00:18:16;10.97;;;6.00;;
30147;SDS011;16960;49.404;8.248;2022-08-23T00:20:44;10.87;;;4.70;;
30147;SDS011;16960;49.404;8.248;2022-08-23T00:23:12;7.27;;;4.93;;
30147;SDS011;16960;49.404;8.248;2022-08-23T00:25:39;4.90;;;4.40;;
30147;SDS011;16960;49.404;8.248;2022-08-23T00:28:06;6.77;;;4.67;;
30147;SDS011;16960;49.404;8.248;2022-08-23T00:30:34;9.20;;;4.67;;
30147;SDS011;16960;49.404;8.248;2022-08-23T00:33:02;7.77;;;4.83;;
30147;SDS011;16960;49.404;8.248;2022-08-23T00:35:29;5.43;;;4.50;;
30147;SDS011;16960;49.404;8.248;2022-08-23T00:37:56;5.50;;;4.50;;
30147;SDS011;16960;49.404;8.248;2022-08-23T00:40:24;10.07;;;5.23;;
30147;SDS011;16960;49.404;8.248;2022-08-23T00:42:53;9.87;;;5.23;;
30147;SDS011;16960;49.404;8.248;2022-08-23T00:45:43;5.53;;;4.00;;
30147;SDS011;16960;49.404;8.248;2022-08-23T00:48:33;7.30;;;4.30;;
30147;SDS011;16960;49.404;8.248;2022-08-23T00:51:04;6.97;;;4.80;;
30147;SDS011;16960;49.404;8.248;2022-08-23T00:53:38;6.83;;;4.63;;
30147;SDS011;16960;49.404;8.248;2022-08-23T00:56:08;6.40;;;4.13;;
30147;SDS011;16960;49.404;8.248;2022-08-23T00:58:38;8.50;;;3.93;;
30147;SDS011;16960;49.404;8.248;2022-08-23T01:01:06;5.20;;;4.47;;
30147;SDS011;16960;49.404;8.248;2022-08-23T01:03:35;5.80;;;3.60;;
30147;SDS011;16960;49.404;8.248;2022-08-23T01:06:05;5.57;;;4.97;;
30147;SDS011;16960;49.404;8.248;2022-08-23T01:08:36;6.40;;;4.00;;
30147;SDS011;16960;49.404;8.248;2022-08-23T01:11:05;6.70;;;4.13;;
30147;SDS011;16960;49.404;8.248;2022-08-23T01:13:36;8.00;;;3.80;;
30147;SDS011;16960;49.404;8.248;2022-08-23T01:16:10;6.60;;;4.03;;
30147;SDS011;16960;49.404;8.248;2022-08-23T01:18:42;6.93;;;4.20;;
30147;SDS011;16960;49.404;8.248;2022-08-23T01:21:10;7.73;;;3.90;;
30147;SDS011;16960;49.404;8.248;2022-08-23T01:23:44;4.60;;;3.93;;
30147;SDS011;16960;49.404;8.248;2022-08-23T01:26:14;5.20;;;3.67;;
30147;SDS011;16960;49.404;8.248;2022-08-23T01:28:43;4.73;;;3.70;;
30147;SDS011;16960;49.404;8.248;2022-08-23T01:31:10;4.47;;;4.07;;
30147;SDS011;16960;49.404;8.248;2022-08-23T01:33:38;4.10;;;3.67;;
30147;SDS011;16960;49.404;8.248;2022-08-23T01:36:07;4.77;;;3.60;;
30147;SDS011;16960;49.404;8.248;2022-08-23T01:38:36;7.37;;;4.07;;
30147;SDS011;16960;49.404;8.248;2022-08-23T01:41:04;4.73;;;3.80;;
30147;SDS011;16960;49.404;8.248;2022-08-23T01:43:32;3.90;;;3.60;;
30147;SDS011;16960;49.404;8.248;2022-08-23T01:46:05;4.53;;;3.53;;
30147;SDS011;16960;49.404;8.248;2022-08-23T01:48:33;3.50;;;3.20;;
30147;SDS011;16960;49.404;8.248;2022-08-23T01:51:00;7.03;;;3.87;;
30147;SDS011;16960;49.404;8.248;2022-08-23T01:53:28;4.00;;;3.27;;
30147;SDS011;16960;49.404;8.248;2022-08-23T01:55:55;6.30;;;3.80;;
30147;SDS011;16960;49.404;8.248;2022-08-23T01:58:23;6.63;;;3.60;;
30147;SDS011;16960;49.404;8.248;2022-08-23T02:00:50;4.30;;;3.57;;
30147;SDS011;16960;49.404;8.248;2022-08-23T02:03:17;4.13;;;3.70;;
30147;SDS011;16960;49.404;8.248;2022-08-23T02:05:45;4.87;;;3.63;;
30147;SDS011;16960;49.404;8.248;2022-08-23T02:08:12;5.23;;;3.50;;
30147;SDS011;16960;49.404;8.248;2022-08-23T02:10:57;11.10;;;3.33;;
30147;SDS011;16960;49.404;8.248;2022-08-23T02:13:26;4.80;;;3.40;;
30147;SDS011;16960;49.404;8.248;2022-08-23T02:15:53;5.80;;;3.73;;
30147;SDS011;16960;49.404;8.248;2022-08-23T02:18:22;3.77;;;3.47;;
30147;SDS011;16960;49.404;8.248;2022-08-23T02:20:49;4.10;;;3.70;;
30147;SDS011;16960;49.404;8.248;2022-08-23T02:23:18;4.97;;;3.77;;
30147;SDS011;16960;49.404;8.248;2022-08-23T02:25:46;3.53;;;3.23;;
30147;SDS011;16960;49.404;8.248;2022-08-23T02:28:14;5.63;;;3.60;;
30147;SDS011;16960;49.404;8.248;2022-08-23T02:30:43;4.73;;;4.27;;
30147;SDS011;16960;49.404;8.248;2022-08-23T02:33:10;4.20;;;3.67;;
30147;SDS011;16960;49.404;8.248;2022-08-23T02:35:37;5.03;;;4.00;;
30147;SDS011;16960;49.404;8.248;2022-08-23T02:38:06;3.60;;;3.17;;
30147;SDS011;16960;49.404;8.248;2022-08-23T02:40:35;5.40;;;3.43;;
30147;SDS011;16960;49.404;8.248;2022-08-23T02:43:03;5.40;;;3.40;;
30147;SDS011;16960;49.404;8.248;2022-08-23T02:45:31;4.27;;;3.00;;
30147;SDS011;16960;49.404;8.248;2022-08-23T02:47:59;5.43;;;3.30;;
30147;SDS011;16960;49.404;8.248;2022-08-23T02:50:26;6.17;;;3.30;;
30147;SDS011;16960;49.404;8.248;2022-08-23T02:52:53;8.40;;;3.33;;
30147;SDS011;16960;49.404;8.248;2022-08-23T02:55:21;3.90;;;3.23;;
30147;SDS011;16960;49.404;8.248;2022-08-23T02:57:48;3.80;;;3.50;;
30147;SDS011;16960;49.404;8.248;2022-08-23T03:00:15;4.00;;;3.33;;
30147;SDS011;16960;49.404;8.248;2022-08-23T03:02:44;7.03;;;4.03;;
30147;SDS011;16960;49.404;8.248;2022-08-23T03:05:13;6.20;;;4.50;;
30147;SDS011;16960;49.404;8.248;2022-08-23T03:07:40;6.93;;;4.80;;
30147;SDS011;16960;49.404;8.248;2022-08-23T03:10:08;7.10;;;4.43;;
30147;SDS011;16960;49.404;8.248;2022-08-23T03:12:36;4.57;;;3.97;;
30147;SDS011;16960;49.404;8.248;2022-08-23T03:15:04;8.60;;;5.30;;
30147;SDS011;16960;49.404;8.248;2022-08-23T03:17:32;7.17;;;4.70;;
30147;SDS011;16960;49.404;8.248;2022-08-23T03:19:59;6.80;;;4.73;;
30147;SDS011;16960;49.404;8.248;2022-08-23T03:22:27;5.43;;;4.37;;
30147;SDS011;16960;49.404;8.248;2022-08-23T03:24:54;5.80;;;4.30;;
30147;SDS011;16960;49.404;8.248;2022-08-23T03:27:21;11.63;;;5.33;;
30147;SDS011;16960;49.404;8.248;2022-08-23T03:29:48;14.23;;;4.43;;
30147;SDS011;16960;49.404;8.248;2022-08-23T03:32:15;5.30;;;4.17;;
30147;SDS011;16960;49.404;8.248;2022-08-23T03:34:42;8.17;;;4.47;;
30147;SDS011;16960;49.404;8.248;2022-08-23T03:37:09;5.87;;;4.50;;
30147;SDS011;16960;49.404;8.248;2022-08-23T03:39:37;5.20;;;4.00;;
30147;SDS011;16960;49.404;8.248;2022-08-23T03:42:05;5.10;;;4.10;;
30147;SDS011;16960;49.404;8.248;2022-08-23T03:44:32;6.27;;;5.03;;
30147;SDS011;16960;49.404;8.248;2022-08-23T03:46:59;6.57;;;4.13;;
30147;SDS011;16960;49.404;8.248;2022-08-23T03:49:26;7.90;;;5.00;;
30147;SDS011;16960;49.404;8.248;2022-08-23T03:51:53;6.03;;;4.33;;
30147;SDS011;16960;49.404;8.248;2022-08-23T03:54:20;5.17;;;4.50;;
30147;SDS011;16960;49.404;8.248;2022-08-23T03:56:53;8.40;;;4.53;;
30147;SDS011;16960;49.404;8.248;2022-08-23T03:59:23;6.43;;;3.63;;
30147;SDS011;16960;49.404;8.248;2022-08-23T04:01:50;9.20;;;4.50;;
30147;SDS011;16960;49.404;8.248;2022-08-23T04:04:17;4.50;;;4.10;;
30147;SDS011;16960;49.404;8.248;2022-08-23T04:06:44;6.23;;;4.23;;
30147;SDS011;16960;49.404;8.248;2022-08-23T04:09:11;6.07;;;3.83;;
30147;SDS011;16960;49.404;8.248;2022-08-23T04:11:40;6.13;;;4.90;;
30147;SDS011;16960;49.404;8.248;2022-08-23T04:14:08;6.70;;;4.00;;
30147;SDS011;16960;49.404;8.248;2022-08-23T04:16:37;4.90;;;3.80;;
30147;SDS011;16960;49.404;8.248;2022-08-23T04:19:04;3.67;;;3.30;;
30147;SDS011;16960;49.404;8.248;2022-08-23T04:21:32;5.30;;;4.43;;
30147;SDS011;16960;49.404;8.248;2022-08-23T04:24:00;7.27;;;4.43;;
30147;SDS011;16960;49.404;8.248;2022-08-23T04:26:27;6.80;;;4.63;;
30147;SDS011;16960;49.404;8.248;2022-08-23T04:28:54;4.70;;;3.87;;
30147;SDS011;16960;49.404;8.248;2022-08-23T04:31:23;4.80;;;4.30;;
30147;SDS011;16960;49.404;8.248;2022-08-23T04:33:51;4.17;;;3.37;;
30147;SDS011;16960;49.404;8.248;2022-08-23T04:36:18;7.20;;;4.07;;
30147;SDS011;16960;49.404;8.248;2022-08-23T04:38:45;3.83;;;3.30;;
30147;SDS011;16960;49.404;8.248;2022-08-23T04:41:12;5.80;;;3.80;;
30147;SDS011;16960;49.404;8.248;2022-08-23T04:43:57;4.50;;;4.10;;
30147;SDS011;16960;49.404;8.248;2022-08-23T04:46:26;5.03;;;3.30;;
30147;SDS011;16960;49.404;8.248;2022-08-23T04:48:53;2.80;;;2.60;;
30147;SDS011;16960;49.404;8.248;2022-08-23T04:51:20;5.33;;;3.80;;
30147;SDS011;16960;49.404;8.248;2022-08-23T04:53:47;5.87;;;4.27;;
30147;SDS011;16960;49.404;8.248;2022-08-23T04:56:14;6.67;;;5.17;;
30147;SDS011;16960;49.404;8.248;2022-08-23T04:58:41;6.90;;;5.00;;
30147;SDS011;16960;49.404;8.248;2022-08-23T05:01:09;7.90;;;4.40;;
30147;SDS011;16960;49.404;8.248;2022-08-23T05:03:41;4.50;;;4.10;;
30147;SDS011;16960;49.404;8.248;2022-08-23T05:06:08;5.73;;;4.37;;
30147;SDS011;16960;49.404;8.248;2022-08-23T05:08:35;7.20;;;4.60;;
30147;SDS011;16960;49.404;8.248;2022-08-23T05:11:03;6.10;;;5.50;;
30147;SDS011;16960;49.404;8.248;2022-08-23T05:13:32;7.63;;;5.23;;
30147;SDS011;16960;49.404;8.248;2022-08-23T05:15:59;5.00;;;4.60;;
30147;SDS011;16960;49.404;8.248;2022-08-23T05:18:26;5.73;;;4.87;;
30147;SDS011;16960;49.404;8.248;2022-08-23T05:20:54;4.77;;;4.40;;
30147;SDS011;16960;49.404;8.248;2022-08-23T05:23:21;6.90;;;5.03;;
30147;SDS011;16960;49.404;8.248;2022-08-23T05:25:49;7.83;;;5.07;;
30147;SDS011;16960;49.404;8.248;2022-08-23T05:28:17;5.27;;;4.77;;
30147;SDS011;16960;49.404;8.248;2022-08-23T05:30:52;5.00;;;4.50;;
30147;SDS011;16960;49.404;8.248;2022-08-23T05:33:20;4.80;;;4.40;;
30147;SDS011;16960;49.404;8.248;2022-08-23T05:35:48;6.17;;;4.63;;
30147;SDS011;16960;49.404;8.248;2022-08-23T05:38:16;7.40;;;4.50;;
30147;SDS011;16960;49.404;8.248;2022-08-23T05:40:43;6.80;;;4.57;;
30147;SDS011;16960;49.404;8.248;2022-08-23T05:43:13;7.63;;;4.33;;
30147;SDS011;16960;49.404;8.248;2022-08-23T05:45:40;9.30;;;4.90;;
30147;SDS011;16960;49.404;8.248;2022-08-23T05:48:07;6.03;;;4.60;;
30147;SDS011;16960;49.404;8.248;2022-08-23T05:50:34;4.93;;;4.00;;
30147;SDS011;16960;49.404;8.248;2022-08-23T05:53:02;5.80;;;4.37;;
30147;SDS011;16960;49.404;8.248;2022-08-23T05:55:31;6.50;;;4.27;;
30147;SDS011;16960;49.404;8.248;2022-08-23T05:57:58;4.43;;;4.03;;
30147;SDS011;16960;49.404;8.248;2022-08-23T06:00:25;7.80;;;4.80;;
30147;SDS011;16960;49.404;8.248;2022-08-23T06:02:52;6.00;;;4.53;;
30147;SDS011;16960;49.404;8.248;2022-08-23T06:05:20;5.40;;;4.90;;
30147;SDS011;16960;49.404;8.248;2022-08-23T06:07:47;7.43;;;5.90;;
30147;SDS011;16960;49.404;8.248;2022-08-23T06:10:14;8.53;;;5.80;;
30147;SDS011;16960;49.404;8.248;2022-08-23T06:12:45;5.80;;;5.20;;
30147;SDS011;16960;49.404;8.248;2022-08-23T06:15:12;6.97;;;4.73;;
30147;SDS011;16960;49.404;8.248;2022-08-23T06:17:39;9.40;;;5.43;;
30147;SDS011;16960;49.404;8.248;2022-08-23T06:20:06;7.17;;;4.50;;
30147;SDS011;16960;49.404;8.248;2022-08-23T06:22:34;5.77;;;5.27;;
30147;SDS011;16960;49.404;8.248;2022-08-23T06:25:02;6.77;;;4.80;;
30147;SDS011;16960;49.404;8.248;2022-08-23T06:27:29;5.23;;;3.90;;
30147;SDS011;16960;49.404;8.248;2022-08-23T06:29:57;6.73;;;4.80;;
30147;SDS011;16960;49.404;8.248;2022-08-23T06:32:24;5.10;;;4.37;;
30147;SDS011;16960;49.404;8.248;2022-08-23T06:34:51;4.90;;;3.80;;
30147;SDS011;16960;49.404;8.248;2022-08-23T06:37:18;3.83;;;3.50;;
30147;SDS011;16960;49.404;8.248;2022-08-23T06:39:45;4.47;;;3.47;;
30147;SDS011;16960;49.404;8.248;2022-08-23T06:42:13;8.73;;;4.27;;
30147;SDS011;16960;49.404;8.248;2022-08-23T06:44:41;5.63;;;3.93;;
30147;SDS011;16960;49.404;8.248;2022-08-23T06:47:10;6.30;;;3.80;;
30147;SDS011;16960;49.404;8.248;2022-08-23T06:49:37;6.00;;;3.87;;
30147;SDS011;16960;49.404;8.248;2022-08-23T06:52:04;4.47;;;3.73;;
30147;SDS011;16960;49.404;8.248;2022-08-23T06:54:33;3.90;;;3.43;;
30147;SDS011;16960;49.404;8.248;2022-08-23T06:57:01;3.70;;;3.40;;
30147;SDS011;16960;49.404;8.248;2022-08-23T06:59:29;6.00;;;4.37;;
30147;SDS011;16960;49.404;8.248;2022-08-23T07:01:56;6.00;;;4.10;;
30147;SDS011;16960;49.404;8.248;2022-08-23T07:04:27;4.83;;;3.70;;
30147;SDS011;16960;49.404;8.248;2022-08-23T07:06:56;4.40;;;2.97;;
30147;SDS011;16960;49.404;8.248;2022-08-23T07:09:25;4.30;;;3.73;;
30147;SDS011;16960;49.404;8.248;2022-08-23T07:11:52;5.07;;;4.00;;
30147;SDS011;16960;49.404;8.248;2022-08-23T07:14:20;3.83;;;3.53;;
30147;SDS011;16960;49.404;8.248;2022-08-23T07:16:49;4.00;;;3.60;;
30147;SDS011;16960;49.404;8.248;2022-08-23T07:19:18;3.93;;;3.50;;
30147;SDS011;16960;49.404;8.248;2022-08-23T07:21:48;3.97;;;3.57;;
30147;SDS011;16960;49.404;8.248;2022-08-23T07:24:16;4.03;;;3.63;;
30147;SDS011;16960;49.404;8.248;2022-08-23T07:26:44;5.60;;;3.67;;
30147;SDS011;16960;49.404;8.248;2022-08-23T07:29:13;3.93;;;3.60;;
30147;SDS011;16960;49.404;8.248;2022-08-23T07:31:42;4.20;;;3.80;;
30147;SDS011;16960;49.404;8.248;2022-08-23T07:34:10;3.20;;;2.90;;
30147;SDS011;16960;49.404;8.248;2022-08-23T07:36:38;5.93;;;3.30;;
30147;SDS011;16960;49.404;8.248;2022-08-23T07:39:08;3.50;;;3.17;;
30147;SDS011;16960;49.404;8.248;2022-08-23T07:41:35;4.10;;;3.20;;
30147;SDS011;16960;49.404;8.248;2022-08-23T07:44:04;3.87;;;3.47;;
30147;SDS011;16960;49.404;8.248;2022-08-23T07:46:33;4.70;;;3.30;;
30147;SDS011;16960;49.404;8.248;2022-08-23T07:49:01;3.70;;;3.00;;
30147;SDS011;16960;49.404;8.248;2022-08-23T07:51:29;3.83;;;3.27;;
30147;SDS011;16960;49.404;8.248;2022-08-23T07:53:59;3.30;;;3.00;;
30147;SDS011;16960;49.404;8.248;2022-08-23T07:56:28;3.67;;;2.97;;
30147;SDS011;16960;49.404;8.248;2022-08-23T07:58:55;3.57;;;3.23;;
30147;SDS011;16960;49.404;8.248;2022-08-23T08:01:23;3.70;;;3.30;;
30147;SDS011;16960;49.404;8.248;2022-08-23T08:03:52;4.07;;;2.80;;
30147;SDS011;16960;49.404;8.248;2022-08-23T08:06:22;3.40;;;3.10;;
30147;SDS011;16960;49.404;8.248;2022-08-23T08:08:50;4.13;;;3.73;;
30147;SDS011;16960;49.404;8.248;2022-08-23T08:11:19;4.60;;;3.57;;
30147;SDS011;16960;49.404;8.248;2022-08-23T08:13:50;3.03;;;2.83;;
30147;SDS011;16960;49.404;8.248;2022-08-23T08:16:21;3.70;;;3.40;;
30147;SDS011;16960;49.404;8.248;2022-08-23T08:18:50;3.13;;;2.83;;
30147;SDS011;16960;49.404;8.248;2022-08-23T08:21:19;2.83;;;2.50;;
30147;SDS011;16960;49.404;8.248;2022-08-23T08:23:46;3.07;;;2.80;;
30147;SDS011;16960;49.404;8.248;2022-08-23T08:26:13;4.03;;;2.80;;
30147;SDS011;16960;49.404;8.248;2022-08-23T08:28:40;3.67;;;3.37;;
30147;SDS011;16960;49.404;8.248;2022-08-23T08:31:09;3.17;;;2.87;;
30147;SDS011;16960;49.404;8.248;2022-08-23T08:33:37;4.20;;;3.80;;
30147;SDS011;16960;49.404;8.248;2022-08-23T08:36:05;2.97;;;2.77;;
30147;SDS011;16960;49.404;8.248;2022-08-23T08:38:33;3.20;;;2.90;;
30147;SDS011;16960;49.404;8.248;2022-08-23T08:41:06;3.33;;;3.03;;
30147;SDS011;16960;49.404;8.248;2022-08-23T08:43:42;3.50;;;3.20;;
30147;SDS011;16960;49.404;8.248;2022-08-23T08:46:21;3.47;;;3.03;;
30147;SDS011;16960;49.404;8.248;2022-08-23T08:48:54;5.20;;;2.93;;
30147;SDS011;16960;49.404;8.248;2022-08-23T08:51:30;2.90;;;2.70;;
30147;SDS011;16960;49.404;8.248;2022-08-23T08:54:07;3.23;;;2.93;;
30147;SDS011;16960;49.404;8.248;2022-08-23T08:56:38;2.87;;;2.67;;
30147;SDS011;16960;49.404;8.248;2022-08-23T08:59:07;3.17;;;2.80;;
30147;SDS011;16960;49.404;8.248;2022-08-23T09:01:40;3.63;;;2.93;;
30147;SDS011;16960;49.404;8.248;2022-08-23T09:04:08;3.77;;;2.87;;
30147;SDS011;16960;49.404;8.248;2022-08-23T09:06:40;3.73;;;2.80;;
30147;SDS011;16960;49.404;8.248;2022-08-23T09:09:18;3.30;;;3.00;;
30147;SDS011;16960;49.404;8.248;2022-08-23T09:12:00;3.20;;;2.90;;
30147;SDS011;16960;49.404;8.248;2022-08-23T09:14:38;3.60;;;3.30;;
30147;SDS011;16960;49.404;8.248;2022-08-23T09:17:19;3.10;;;2.80;;
30147;SDS011;16960;49.404;8.248;2022-08-23T09:19:49;3.10;;;2.73;;
30147;SDS011;16960;49.404;8.248;2022-08-23T09:22:24;3.03;;;2.77;;
30147;SDS011;16960;49.404;8.248;2022-08-23T09:24:58;2.83;;;2.63;;
30147;SDS011;16960;49.404;8.248;2022-08-23T09:27:24;3.00;;;2.70;;
30147;SDS011;16960;49.404;8.248;2022-08-23T09:29:53;4.10;;;3.70;;
30147;SDS011;16960;49.404;8.248;2022-08-23T09:32:27;3.40;;;2.90;;
30147;SDS011;16960;49.404;8.248;2022-08-23T09:35:07;2.50;;;2.30;;
30147;SDS011;16960;49.404;8.248;2022-08-23T09:37:45;3.20;;;2.77;;
30147;SDS011;16960;49.404;8.248;2022-08-23T09:40:24;3.13;;;2.83;;
30147;SDS011;16960;49.404;8.248;2022-08-23T09:43:05;3.80;;;3.50;;
30147;SDS011;16960;49.404;8.248;2022-08-23T09:45:38;2.43;;;2.17;;
30147;SDS011;16960;49.404;8.248;2022-08-23T09:48:12;2.80;;;2.60;;
30147;SDS011;16960;49.404;8.248;2022-08-23T09:50:42;2.77;;;2.57;;
30147;SDS011;16960;49.404;8.248;2022-08-23T09:53:15;3.37;;;3.07;;
30147;SDS011;16960;49.404;8.248;2022-08-23T09:55:51;3.00;;;2.77;;
30147;SDS011;16960;49.404;8.248;2022-08-23T09:58:22;3.53;;;3.07;;
30147;SDS011;16960;49.404;8.248;2022-08-23T10:01:01;2.80;;;2.60;;
30147;SDS011;16960;49.404;8.248;2022-08-23T10:03:37;2.63;;;2.43;;
30147;SDS011;16960;49.404;8.248;2022-08-23T10:06:06;3.50;;;3.20;;
30147;SDS011;16960;49.404;8.248;2022-08-23T10:08:36;3.17;;;2.87;;
30147;SDS011;16960;49.404;8.248;2022-08-23T10:11:16;2.67;;;2.47;;
30147;SDS011;16960;49.404;8.248;2022-08-23T10:13:45;3.10;;;2.90;;
30147;SDS011;16960;49.404;8.248;2022-08-23T10:16:14;3.20;;;2.90;;
30147;SDS011;16960;49.404;8.248;2022-08-23T10:18:52;7.43;;;3.33;;
30147;SDS011;16960;49.404;8.248;2022-08-23T10:21:28;2.90;;;2.70;;
30147;SDS011;16960;49.404;8.248;2022-08-23T10:24:18;2.73;;;2.53;;
30147;SDS011;16960;49.404;8.248;2022-08-23T10:27:07;2.77;;;2.57;;
30147;SDS011;16960;49.404;8.248;2022-08-23T10:30:04;3.40;;;2.87;;
30147;SDS011;16960;49.404;8.248;2022-08-23T10:32:36;2.20;;;2.10;;
30147;SDS011;16960;49.404;8.248;2022-08-23T10:35:24;2.67;;;2.30;;
30147;SDS011;16960;49.404;8.248;2022-08-23T10:37:59;2.50;;;2.30;;
30147;SDS011;16960;49.404;8.248;2022-08-23T10:40:36;2.63;;;2.43;;
30147;SDS011;16960;49.404;8.248;2022-08-23T10:43:13;4.27;;;2.63;;
30147;SDS011;16960;49.404;8.248;2022-08-23T10:45:50;2.83;;;2.63;;
30147;SDS011;16960;49.404;8.248;2022-08-23T10:48:19;2.50;;;2.30;;
30147;SDS011;16960;49.404;8.248;2022-08-23T10:50:54;3.27;;;3.00;;
30147;SDS011;16960;49.404;8.248;2022-08-23T10:53:24;2.33;;;2.23;;
30147;SDS011;16960;49.404;8.248;2022-08-23T10:55:59;2.47;;;2.27;;
30147;SDS011;16960;49.404;8.248;2022-08-23T10:58:30;2.40;;;2.20;;
30147;SDS011;16960;49.404;8.248;2022-08-23T11:01:02;2.23;;;2.03;;
30147;SDS011;16960;49.404;8.248;2022-08-23T11:03:31;3.37;;;2.70;;
30147;SDS011;16960;49.404;8.248;2022-08-23T11:06:28;2.83;;;2.47;;
30147;SDS011;16960;49.404;8.248;2022-08-23T11:09:29;2.33;;;2.13;;
30147;SDS011;16960;49.404;8.248;2022-08-23T11:12:12;2.60;;;2.40;;
30147;SDS011;16960;49.404;8.248;2022-08-23T11:14:46;2.10;;;1.90;;
30147;SDS011;16960;49.404;8.248;2022-08-23T11:17:25;2.80;;;2.60;;
30147;SDS011;16960;49.404;8.248;2022-08-23T11:19:57;3.50;;;2.90;;
30147;SDS011;16960;49.404;8.248;2022-08-23T11:22:27;2.77;;;2.57;;
30147;SDS011;16960;49.404;8.248;2022-08-23T11:24:58;2.97;;;2.70;;
30147;SDS011;16960;49.404;8.248;2022-08-23T11:27:28;2.53;;;2.33;;
30147;SDS011;16960;49.404;8.248;2022-08-23T11:29:58;3.20;;;2.90;;
30147;SDS011;16960;49.404;8.248;2022-08-23T11:33:07;2.90;;;2.50;;
30147;SDS011;16960;49.404;8.248;2022-08-23T11:35:41;4.03;;;2.33;;
30147;SDS011;16960;49.404;8.248;2022-08-23T11:38:12;2.80;;;2.60;;
30147;SDS011;16960;49.404;8.248;2022-08-23T11:43:39;2.77;;;2.20;;
30147;SDS011;16960;49.404;8.248;2022-08-23T11:46:28;2.50;;;2.30;;
30147;SDS011;16960;49.404;8.248;2022-08-23T11:49:01;2.80;;;2.33;;
30147;SDS011;16960;49.404;8.248;2022-08-23T11:52:10;2.70;;;2.50;;
30147;SDS011;16960;49.404;8.248;2022-08-23T11:55:00;2.60;;;2.40;;
30147;SDS011;16960;49.404;8.248;2022-08-23T11:57:51;2.50;;;2.30;;
30147;SDS011;16960;49.404;8.248;2022-08-23T12:00:25;2.60;;;2.40;;
30147;SDS011;16960;49.404;8.248;2022-08-23T12:03:19;2.27;;;2.00;;
30147;SDS011;16960;49.404;8.248;2022-08-23T12:06:09;2.37;;;2.17;;
30147;SDS011;16960;49.404;8.248;2022-08-23T12:08:53;2.50;;;2.30;;
30147;SDS011;16960;49.404;8.248;2022-08-23T12:12:04;2.47;;;2.27;;
30147;SDS011;16960;49.404;8.248;2022-08-23T12:14:46;2.17;;;2.03;;
30147;SDS011;16960;49.404;8.248;2022-08-23T12:20:20;2.73;;;2.53;;
30147;SDS011;16960;49.404;8.248;2022-08-23T12:22:56;2.57;;;2.37;;
30147;SDS011;16960;49.404;8.248;2022-08-23T12:25:27;2.67;;;2.47;;
30147;SDS011;16960;49.404;8.248;2022-08-23T12:27:58;2.63;;;2.43;;
30147;SDS011;16960;49.404;8.248;2022-08-23T12:30:33;2.77;;;2.57;;
30147;SDS011;16960;49.404;8.248;2022-08-23T12:33:07;2.57;;;2.37;;
30147;SDS011;16960;49.404;8.248;2022-08-23T12:35:41;2.97;;;2.77;;
30147;SDS011;16960;49.404;8.248;2022-08-23T12:38:16;2.87;;;2.00;;
30147;SDS011;16960;49.404;8.248;2022-08-23T12:40:55;2.37;;;2.17;;
30147;SDS011;16960;49.404;8.248;2022-08-23T12:43:25;2.03;;;1.93;;
30147;SDS011;16960;49.404;8.248;2022-08-23T12:45:54;2.20;;;2.03;;
30147;SDS011;16960;49.404;8.248;2022-08-23T12:48:26;2.30;;;2.10;;
30147;SDS011;16960;49.404;8.248;2022-08-23T12:50:55;2.63;;;2.43;;
30147;SDS011;16960;49.404;8.248;2022-08-23T12:53:25;2.20;;;2.10;;
30147;SDS011;16960;49.404;8.248;2022-08-23T12:55:58;2.90;;;2.70;;
30147;SDS011;16960;49.404;8.248;2022-08-23T12:58:31;2.60;;;2.40;;
30147;SDS011;16960;49.404;8.248;2022-08-23T13:00:59;1.90;;;1.77;;
30147;SDS011;16960;49.404;8.248;2022-08-23T13:03:29;1.80;;;1.70;;
30147;SDS011;16960;49.404;8.248;2022-08-23T13:06:01;2.23;;;2.03;;
30147;SDS011;16960;49.404;8.248;2022-08-23T13:08:31;2.53;;;2.33;;
30147;SDS011;16960;49.404;8.248;2022-08-23T13:11:05;2.50;;;2.07;;
30147;SDS011;16960;49.404;8.248;2022-08-23T13:13:36;2.50;;;2.30;;
30147;SDS011;16960;49.404;8.248;2022-08-23T13:18:51;2.40;;;2.13;;
30147;SDS011;16960;49.404;8.248;2022-08-23T13:21:24;2.00;;;1.87;;
30147;SDS011;16960;49.404;8.248;2022-08-23T13:23:54;2.33;;;2.13;;
30147;SDS011;16960;49.404;8.248;2022-08-23T13:26:27;2.43;;;2.23;;
30147;SDS011;16960;49.404;8.248;2022-08-23T13:29:02;2.40;;;2.20;;
30147;SDS011;16960;49.404;8.248;2022-08-23T13:31:47;2.37;;;2.17;;
30147;SDS011;16960;49.404;8.248;2022-08-23T13:34:29;2.53;;;2.33;;
30147;SDS011;16960;49.404;8.248;2022-08-23T13:37:02;2.10;;;1.90;;
30147;SDS011;16960;49.404;8.248;2022-08-23T13:39:31;2.00;;;1.90;;
30147;SDS011;16960;49.404;8.248;2022-08-23T13:41:59;2.50;;;2.30;;
30147;SDS011;16960;49.404;8.248;2022-08-23T13:44:29;2.10;;;1.90;;
30147;SDS011;16960;49.404;8.248;2022-08-23T13:46:57;1.70;;;1.60;;
30147;SDS011;16960;49.404;8.248;2022-08-23T13:49:25;2.20;;;2.00;;
30147;SDS011;16960;49.404;8.248;2022-08-23T13:52:04;2.30;;;2.10;;
30147;SDS011;16960;49.404;8.248;2022-08-23T13:54:34;2.37;;;2.17;;
30147;SDS011;16960;49.404;8.248;2022-08-23T13:57:02;2.20;;;2.00;;
30147;SDS011;16960;49.404;8.248;2022-08-23T13:59:35;2.30;;;2.10;;
30147;SDS011;16960;49.404;8.248;2022-08-23T14:02:05;2.40;;;2.20;;
30147;SDS011;16960;49.404;8.248;2022-08-23T14:04:35;2.50;;;2.30;;
30147;SDS011;16960;49.404;8.248;2022-08-23T14:07:02;2.40;;;2.20;;
30147;SDS011;16960;49.404;8.248;2022-08-23T14:09:30;8.23;;;2.63;;
30147;SDS011;16960;49.404;8.248;2022-08-23T14:12:00;2.40;;;2.20;;
30147;SDS011;16960;49.404;8.248;2022-08-23T14:14:30;2.10;;;1.87;;
30147;SDS011;16960;49.404;8.248;2022-08-23T14:17:01;2.10;;;1.90;;
30147;SDS011;16960;49.404;8.248;2022-08-23T14:19:28;2.60;;;2.40;;
30147;SDS011;16960;49.404;8.248;2022-08-23T14:21:56;2.60;;;2.40;;
30147;SDS011;16960;49.404;8.248;2022-08-23T14:24:23;2.10;;;2.00;;
30147;SDS011;16960;49.404;8.248;2022-08-23T14:26:50;2.40;;;2.20;;
30147;SDS011;16960;49.404;8.248;2022-08-23T14:29:17;2.17;;;2.00;;
30147;SDS011;16960;49.404;8.248;2022-08-23T14:31:45;2.13;;;2.00;;
30147;SDS011;16960;49.404;8.248;2022-08-23T14:34:14;2.90;;;2.50;;
30147;SDS011;16960;49.404;8.248;2022-08-23T14:36:41;2.77;;;2.57;;
30147;SDS011;16960;49.404;8.248;2022-08-23T14:39:08;2.53;;;2.33;;
30147;SDS011;16960;49.404;8.248;2022-08-23T14:41:35;2.90;;;2.20;;
30147;SDS011;16960;49.404;8.248;2022-08-23T14:44:02;2.70;;;2.50;;
30147;SDS011;16960;49.404;8.248;2022-08-23T14:46:29;2.17;;;2.07;;
30147;SDS011;16960;49.404;8.248;2022-08-23T14:48:56;4.10;;;2.00;;
30147;SDS011;16960;49.404;8.248;2022-08-23T14:51:25;2.07;;;1.93;;
30147;SDS011;16960;49.404;8.248;2022-08-23T14:53:56;2.27;;;2.07;;
30147;SDS011;16960;49.404;8.248;2022-08-23T14:56:23;2.50;;;2.13;;
30147;SDS011;16960;49.404;8.248;2022-08-23T14:58:51;2.17;;;1.97;;
30147;SDS011;16960;49.404;8.248;2022-08-23T15:01:18;2.60;;;2.30;;
30147;SDS011;16960;49.404;8.248;2022-08-23T15:03:45;2.30;;;1.90;;
30147;SDS011;16960;49.404;8.248;2022-08-23T15:06:14;1.90;;;1.80;;
30147;SDS011;16960;49.404;8.248;2022-08-23T15:08:43;2.10;;;1.90;;
30147;SDS011;16960;49.404;8.248;2022-08-23T15:11:11;2.07;;;1.97;;
30147;SDS011;16960;49.404;8.248;2022-08-23T15:13:39;2.50;;;2.30;;
30147;SDS011;16960;49.404;8.248;2022-08-23T15:16:07;2.70;;;1.97;;
30147;SDS011;16960;49.404;8.248;2022-08-23T15:18:36;2.00;;;1.83;;